Latest Weather Observations for Eildon Fire Tower

IDV60801

Issued at 3:02 pm EST Monday 30 May 2016 (issued every 30 minutes, with the page automatically refreshed every 10 minutes)

About weather observations | Map of weather stations | Latest weather observations for VIC | Other Formats
Station Details ID: 088164 Name: EILDON FIRE TOWER Lat: -37.21 Lon: 145.84 Height: 637.0 m
Data from the previous 72 hours. | See also: Recent months at Eildon Fire Tower
Date/Time
EST
Temp
°C
App
Temp
°C
Dew
Point
Rel
Hum
%
Delta-T
°C
Wind Press
QNH
hPa
Press
MSL
hPa
Rain
since 9 am
mm
Dir
 
Spd
km/h
Gust
km/h
Spd
kts
Gust
kts
30/03:00pm 9.0 6.8 5.2 77 1.8 W 6 7 3 4 - - 0.0
30/02:30pm 9.9 7.7 3.2 63 3.0 N 4 9 2 5 - - 0.0
30/02:00pm 9.2 6.2 2.3 62 3.0 NNE 7 11 4 6 - - 0.0
30/01:30pm 9.3 6.5 3.1 65 2.8 NNE 7 11 4 6 - - 0.0
30/01:00pm 8.6 5.9 2.6 66 2.6 NNE 6 9 3 5 - - 0.0
30/12:30pm 8.8 6.3 4.0 72 2.2 NNE 6 9 3 5 - - 0.0
30/12:00pm 8.1 5.8 5.0 81 1.4 ENE 6 9 3 5 - - 0.0
30/11:30am 7.2 4.9 5.0 86 1.0 ENE 6 9 3 5 - - 0.0
30/11:00am 6.3 3.9 5.1 92 0.5 ENE 7 9 4 5 - - 0.0
30/10:30am 5.5 3.1 5.1 97 0.2 NE 7 9 4 5 - - 0.0
30/10:00am 3.7 0.5 3.3 97 0.2 ENE 9 11 5 6 - - 0.0
30/09:30am 2.7 -0.6 2.3 97 0.2 ENE 9 13 5 7 - - 0.0
30/09:00am 2.8 -0.1 2.5 98 0.1 ENE 7 11 4 6 - - 0.2
30/08:30am 2.5 -0.8 2.2 98 0.1 ENE 9 13 5 7 - - 0.2
30/08:00am 1.7 -1.4 1.3 97 0.2 NE 7 9 4 5 - - 0.0
30/07:30am 1.9 -1.2 1.5 97 0.2 E 7 9 4 5 - - 0.0
30/07:00am 1.6 -1.5 1.2 97 0.2 ENE 7 7 4 4 - - 0.0
30/06:30am 1.7 -1.4 1.3 97 0.2 E 7 9 4 5 - - 0.0
30/06:00am 1.9 -1.2 1.3 96 0.2 ENE 7 9 4 5 - - 0.0
30/05:30am 1.8 -1.3 1.1 95 0.3 ESE 7 11 4 6 - - 0.0
30/05:00am 2.3 -1.2 1.1 92 0.5 ESE 9 11 5 6 - - 0.0
30/04:30am 2.6 -0.9 1.3 91 0.5 ESE 9 11 5 6 - - 0.0
30/04:00am 2.9 -0.2 1.3 89 0.6 ESE 7 7 4 4 - - 0.0
30/03:30am 3.4 1.0 2.2 92 0.5 ESE 4 6 2 3 - - 0.0
30/03:00am 3.6 0.5 1.6 87 0.8 ESE 7 9 4 5 - - 0.0
30/02:30am 3.7 0.6 1.4 85 0.9 ESE 7 9 4 5 - - 0.0
30/02:00am 3.9 0.9 0.9 81 1.2 ESE 6 7 3 4 - - 0.0
30/01:30am 4.2 1.6 1.1 80 1.3 SE 4 7 2 4 - - 0.0
30/01:00am 4.0 1.1 1.2 82 1.1 ESE 6 7 3 4 - - 0.0
30/12:30am 3.8 0.9 1.4 84 1.0 SE 6 7 3 4 - - 0.0
30/12:00am 4.0 0.9 1.4 83 1.1 ESE 7 11 4 6 - - 0.0
 
Date/Time
EST
Temp
°C
App
Temp
°C
Dew
Point
Rel
Hum
%
Delta-T
°C
Wind Press
QNH
hPa
Press
MSL
hPa
Rain
since 9 am
mm
Dir
 
Spd
km/h
Gust
km/h
Spd
kts
Gust
kts
29/11:30pm 4.4 0.9 1.4 81 1.2 S 9 11 5 6 - - 0.0
29/11:00pm 4.6 1.2 2.0 83 1.1 SSW 9 11 5 6 - - 0.0
29/10:30pm 4.5 1.2 2.7 88 0.8 SSW 9 13 5 7 - - 0.0
29/10:00pm 4.6 1.9 2.8 88 0.8 SSW 6 7 3 4 - - 0.0
29/09:30pm 4.9 3.1 3.4 90 0.6 SSW 2 4 1 2 - - 0.0
29/09:00pm 5.3 3.1 3.3 87 0.9 SSW 4 4 2 2 - - 0.0
29/08:30pm 5.2 2.4 3.2 87 0.9 SW 7 11 4 6 - - 0.0
29/08:00pm 5.5 1.2 3.2 85 1.0 SW 15 17 8 9 - - 0.0
29/07:30pm 5.7 1.0 3.0 83 1.2 SW 17 20 9 11 - - 0.0
29/07:00pm 6.0 1.3 3.2 82 1.2 SW 17 20 9 11 - - 0.0
29/06:30pm 6.0 1.7 3.0 81 1.3 WSW 15 19 8 10 - - 0.0
29/06:00pm 6.4 1.1 3.2 80 1.4 SW 20 26 11 14 - - 0.0
29/05:30pm 6.5 1.8 2.9 78 1.6 SW 17 24 9 13 - - 0.0
29/05:00pm 6.8 2.4 2.9 76 1.7 WSW 15 20 8 11 - - 0.0
29/04:30pm 8.0 3.4 3.5 73 2.0 W 17 22 9 12 - - 0.0
29/04:00pm 8.7 3.7 3.5 70 2.3 WSW 19 26 10 14 - - 0.0
29/03:30pm 8.8 3.6 3.6 70 2.3 W 20 26 11 14 - - 0.0
29/03:00pm 8.7 3.6 4.1 73 2.1 W 20 33 11 18 - - 0.0
29/02:30pm 9.0 4.0 4.4 73 2.1 WSW 20 30 11 16 - - 0.0
29/02:00pm 8.9 3.0 4.1 72 2.2 WSW 24 37 13 20 - - 0.0
29/01:30pm 8.5 3.4 4.3 75 1.9 WSW 20 28 11 15 - - 0.0
29/01:00pm 8.2 2.4 4.6 78 1.6 W 24 32 13 17 - - 0.0
29/12:30pm 8.3 3.0 5.2 81 1.4 W 22 32 12 17 - - 0.0
29/12:00pm 8.1 4.1 4.9 80 1.5 W 15 20 8 11 - - 0.0
29/11:30am 7.5 3.0 4.1 79 1.5 W 17 26 9 14 - - 0.0
29/11:00am 6.9 2.4 4.4 84 1.1 W 17 24 9 13 - - 0.0
29/10:30am 6.6 2.0 3.9 83 1.2 WSW 17 26 9 14 - - 0.0
29/10:00am 6.4 1.8 3.9 84 1.1 WSW 17 26 9 14 - - 0.0
29/09:30am 6.2 2.1 4.2 87 0.9 WSW 15 20 8 11 - - 0.0
29/09:00am 5.2 0.9 3.5 89 0.7 WSW 15 20 8 11 - - 0.2
29/08:30am 5.0 -0.3 3.2 88 0.8 WSW 20 28 11 15 - - 0.2
29/08:00am 4.8 0.1 3.3 90 0.6 WSW 17 26 9 14 - - 0.2
29/07:30am 4.5 -0.2 3.2 91 0.6 WSW 17 24 9 13 - - 0.2
29/07:00am 4.6 -0.5 3.3 91 0.6 WSW 19 24 10 13 - - 0.2
29/06:30am 4.4 -0.3 3.1 91 0.6 WSW 17 20 9 11 - - 0.2
29/06:00am 4.5 0.2 3.3 92 0.5 WSW 15 20 8 11 - - 0.2
29/05:30am 4.6 -0.4 3.4 92 0.5 WSW 19 24 10 13 - - 0.2
29/05:00am 4.7 0.1 3.5 92 0.5 WSW 17 20 9 11 - - 0.2
29/04:30am 4.7 0.1 3.5 92 0.5 WSW 17 22 9 12 - - 0.2
29/04:00am 4.7 0.1 3.5 92 0.5 WSW 17 22 9 12 - - 0.2
29/03:30am 4.8 0.6 3.8 93 0.4 W 15 22 8 12 - - 0.2
29/03:00am 4.9 0.8 4.3 96 0.3 W 15 20 8 11 - - 0.2
29/02:30am 4.8 0.7 4.4 97 0.2 WSW 15 20 8 11 - - 0.2
29/02:00am 4.8 0.7 4.5 98 0.1 W 15 17 8 9 - - 0.2
29/01:30am 4.8 0.4 4.5 98 0.1 W 17 19 9 10 - - 0.2
29/01:00am 5.0 1.3 4.7 98 0.1 W 13 17 7 9 - - 0.2
29/12:30am 5.3 1.3 5.0 98 0.1 W 15 19 8 10 - - 0.2
29/12:00am 5.2 0.4 4.9 98 0.1 WSW 19 24 10 13 - - 0.2
 
Date/Time
EST
Temp
°C
App
Temp
°C
Dew
Point
Rel
Hum
%
Delta-T
°C
Wind Press
QNH
hPa
Press
MSL
hPa
Rain
since 9 am
mm
Dir
 
Spd
km/h
Gust
km/h
Spd
kts
Gust
kts
28/11:30pm 5.2 -0.1 4.9 98 0.1 WSW 22 30 12 16 - - 0.2
28/11:00pm 5.3 0.6 5.0 98 0.1 W 19 28 10 15 - - 0.2
28/10:30pm 5.5 0.8 5.2 98 0.1 WSW 19 28 10 15 - - 0.2
28/10:00pm 5.7 0.1 5.3 97 0.2 WSW 24 30 13 16 - - 0.0
28/09:30pm 5.8 0.6 5.4 97 0.2 WSW 22 32 12 17 - - 0.0
28/09:00pm 5.8 0.5 5.2 96 0.3 WSW 22 37 12 20 - - 0.0
28/08:30pm 5.9 1.6 5.2 95 0.3 W 17 26 9 14 - - 0.0
28/08:00pm 6.1 0.5 5.2 94 0.4 WSW 24 35 13 19 - - 0.0
28/07:30pm 6.3 1.5 4.8 90 0.7 WSW 19 35 10 19 - - 0.0
28/07:00pm 6.5 2.5 4.8 89 0.8 WSW 15 26 8 14 - - 0.0
28/06:30pm 6.3 1.9 4.5 88 0.8 W 17 22 9 12 - - 0.0
28/06:00pm 6.5 1.0 4.0 84 1.1 WSW 22 30 12 16 - - 0.0
28/05:30pm 6.3 0.4 4.0 85 1.0 WSW 24 32 13 17 - - 0.0
28/05:00pm 6.7 0.0 3.9 82 1.2 WSW 28 39 15 21 - - 0.0
28/04:30pm 7.4 0.7 3.8 78 1.6 SW 28 46 15 25 - - 0.0
28/04:00pm 6.8 0.4 5.1 89 0.8 WSW 28 37 15 20 - - 0.0
28/03:30pm 7.0 1.7 4.8 86 1.0 WSW 22 33 12 18 - - 0.0
28/03:00pm 8.0 2.5 3.8 75 1.9 WSW 22 32 12 17 - - 0.0
28/02:30pm 9.0 5.1 3.6 69 2.4 SW 13 19 7 10 - - 0.0
28/02:00pm 8.6 4.8 3.8 72 2.2 WSW 13 24 7 13 - - 0.0
28/01:30pm 8.2 3.8 4.8 79 1.6 WSW 17 22 9 12 - - 0.0
28/01:00pm 8.7 4.2 6.2 84 1.2 WSW 19 32 10 17 - - 0.0
28/12:30pm 7.5 2.6 5.1 85 1.1 WSW 20 35 11 19 - - 0.0
28/12:00pm 8.7 4.8 5.4 80 1.5 WSW 15 24 8 13 - - 0.0
28/11:30am 7.3 3.2 4.1 80 1.4 WSW 15 22 8 12 - - 0.0
28/11:00am 7.1 3.4 4.2 82 1.3 SW 13 20 7 11 - - 0.0
28/10:30am 6.7 3.3 4.0 83 1.2 SW 11 15 6 8 - - 0.0
28/10:00am 6.1 2.9 3.1 81 1.3 SW 9 13 5 7 - - 0.0
28/09:30am 5.4 2.1 2.4 81 1.3 SW 9 13 5 7 - - 0.0
28/09:00am 5.7 3.2 1.8 76 1.6 SSW 4 6 2 3 - - 0.2
28/08:30am 4.4 1.3 1.1 79 1.3 SSW 7 9 4 5 - - 0.2
28/08:00am 4.0 1.1 1.5 84 1.0 SE 6 7 3 4 - - 0.2
28/07:30am 3.5 0.1 1.7 88 0.7 SE 9 11 5 6 - - 0.0
28/07:00am 3.8 0.9 1.7 86 0.9 SE 6 7 3 4 - - 0.0
28/06:30am 3.6 0.6 1.8 88 0.7 SE 7 9 4 5 - - 0.0
28/06:00am 3.4 -0.4 1.8 89 0.7 SE 11 13 6 7 - - 0.0
28/05:30am 4.0 0.2 1.9 86 0.9 ESE 11 13 6 7 - - 0.0
28/05:00am 3.8 0.4 1.8 87 0.8 ESE 9 13 5 7 - - 0.0
28/04:30am 3.5 0.1 1.9 89 0.7 SE 9 11 5 6 - - 0.0
28/04:00am 3.5 -0.2 2.3 92 0.5 ESE 11 13 6 7 - - 0.0
28/03:30am 3.7 0.1 2.7 93 0.4 ESE 11 15 6 8 - - 0.0
28/03:00am 4.0 0.1 3.3 95 0.3 E 13 17 7 9 - - 0.0
28/02:30am 3.7 -1.1 2.8 94 0.4 ESE 17 20 9 11 - - 0.0
28/02:00am 3.6 -0.4 2.7 94 0.4 SE 13 15 7 8 - - 0.0
28/01:30am 4.3 1.1 3.1 92 0.5 ESE 9 11 5 6 - - 0.0
28/01:00am 4.4 1.2 2.9 90 0.6 ESE 9 9 5 5 - - 0.0
28/12:30am 4.8 1.3 3.3 90 0.6 E 11 13 6 7 - - 0.0
28/12:00am 4.6 0.7 3.6 93 0.4 E 13 15 7 8 - - 0.0
 
Date/Time
EST
Temp
°C
App
Temp
°C
Dew
Point
Rel
Hum
%
Delta-T
°C
Wind Press
QNH
hPa
Press
MSL
hPa
Rain
since 9 am
mm
Dir
 
Spd
km/h
Gust
km/h
Spd
kts
Gust
kts
27/11:30pm 4.8 1.0 3.8 93 0.4 E 13 15 7 8 - - 0.0
27/11:00pm 4.6 1.6 4.0 96 0.3 ENE 9 13 5 7 - - 0.0
27/10:30pm 4.9 1.4 3.7 92 0.5 ENE 11 13 6 7 - - 0.0
27/10:00pm 5.0 1.6 4.1 94 0.4 ENE 11 11 6 6 - - 0.0
27/09:30pm 5.3 2.4 4.4 94 0.4 NE 9 13 5 7 - - 0.0
27/09:00pm 5.5 2.9 4.2 91 0.6 NNE 7 9 4 5 - - 0.0
27/08:30pm 6.0 3.4 4.0 87 0.9 NNE 7 9 4 5 - - 0.0
27/08:00pm 6.4 3.9 3.7 83 1.2 NW 6 6 3 3 - - 0.0
27/07:30pm 6.7 4.6 3.9 82 1.2 NW 4 6 2 3 - - 0.0
27/07:00pm 6.6 4.2 4.1 84 1.1 NW 6 7 3 4 - - 0.0
27/06:30pm 6.6 4.4 3.6 81 1.3 NW 4 4 2 2 - - 0.0
27/06:00pm 7.1 4.9 3.5 78 1.6 W 4 6 2 3 - - 0.0
27/05:30pm 7.3 4.8 3.5 77 1.7 W 6 6 3 3 - - 0.0
27/05:00pm 7.7 5.2 3.7 76 1.8 WSW 6 9 3 5 - - 0.0
27/04:30pm 8.7 6.3 4.5 75 1.9 WSW 6 7 3 4 - - 0.0
27/04:00pm 9.1 5.8 4.7 74 2.0 W 11 13 6 7 - - 0.0
27/03:30pm 9.1 5.5 4.9 75 1.9 W 13 17 7 9 - - 0.0

Other Formats:

Comma delimited format used in spreadsheet applications
http://www.bom.gov.au/fwo/IDV60801/IDV60801.94881.axf

JavaScript Object Notation format (JSON) in row-major order
http://www.bom.gov.au/fwo/IDV60801/IDV60801.94881.json